LKPR METAR and TAF | Updated Today

LKPR METAR

Václav Havel Airport Prague

Observation time: 31 min. ago

LKPR 251900Z 23008KT CAVOK 14/09 Q1017 NOSIG

Need help? Read our tutorial on how to read METARs or read the parsed version below.

Václav Havel Airport Prague (LKPR) METAR

  • Weather conditions on Wed, 25 May 2022 19:00:00 +0000 (31 min. ago):
  • Present conditions: Dry
  • Clouds: Clear skies
  • Visibility: Greater than 10 km
  • Wind: 230 degrees at 8 knots
  • Temperature: 14 celsius
  • Dew point: 9 celsius
  • Pressure: 1017 millibars
  • Remarks: None


Useful to know...

LKPR TAF

Václav Havel Airport Prague

TAF LKPR 251700Z 2518/2700 24009KT CAVOK TEMPO 2608/2618 28012G24KT 9999 BKN040
Observation time: 2:31 hr. ago
Need help? Read our tutorial on how to read TAFs or read the parsed version below.

Parsed version of TAF for Václav Havel Airport Prague (LKPR)

  • From 25 May at 18:00 UTC, to day 27 of the month at 00:00 UTC
  • Visibility: Greater than 10 km
  • Wind: 240 degrees at 9
  • Expected to arise temporarily, from 26 May at 08:00 UTC, to day 26 of the month at 18:00 UTC
  • Clouds: Broken sky at 1219 meters
  • Visibility: Greater than 10 km
  • Wind: 280 degrees at 12